createdAt,value
2019-05-25T00:02:02.894Z,70.19
2019-05-25T00:04:29.964Z,70.21
2019-05-25T00:06:57.056Z,70.27
2019-05-25T00:09:24.129Z,70.30
2019-05-25T00:11:51.221Z,70.27
2019-05-25T00:14:18.298Z,70.33
2019-05-25T00:16:45.379Z,70.32
2019-05-25T00:19:12.437Z,70.51
2019-05-25T00:21:41.151Z,70.48
2019-05-25T00:24:12.049Z,70.56
2019-05-25T00:26:37.193Z,70.69
2019-05-25T00:29:04.240Z,70.73
2019-05-25T00:31:31.332Z,70.80
2019-05-25T00:33:58.377Z,70.80
2019-05-25T00:36:25.457Z,70.77
2019-05-25T00:38:52.521Z,70.71
2019-05-25T00:41:19.647Z,70.62
2019-05-25T00:43:46.691Z,70.58
2019-05-25T00:46:13.787Z,70.71
2019-05-25T00:48:40.858Z,70.81
2019-05-25T00:51:07.958Z,70.79
2019-05-25T00:53:35.015Z,70.71
2019-05-25T00:56:02.086Z,70.71
2019-05-25T00:58:29.148Z,70.73
2019-05-25T01:00:56.298Z,70.88
2019-05-25T01:03:23.337Z,71.16
2019-05-25T01:05:50.406Z,71.08
2019-05-25T01:08:17.478Z,71.06
2019-05-25T01:10:44.585Z,71.07
2019-05-25T01:13:11.660Z,71.14
2019-05-25T01:15:38.776Z,71.27
2019-05-25T01:18:05.812Z,71.38
2019-05-25T01:20:32.872Z,71.37
2019-05-25T01:22:59.958Z,71.36
2019-05-25T01:25:27.168Z,71.38
2019-05-25T01:27:54.226Z,71.25
2019-05-25T01:30:22.805Z,71.15
2019-05-25T01:32:49.880Z,71.31
2019-05-25T01:35:16.951Z,71.34
2019-05-25T01:37:44.035Z,71.23
2019-05-25T01:40:15.080Z,71.29
2019-05-25T01:42:42.176Z,71.42
2019-05-25T01:45:09.354Z,71.55
2019-05-25T01:47:36.402Z,71.68
2019-05-25T01:50:03.564Z,71.71
2019-05-25T01:52:30.648Z,71.78
2019-05-25T01:55:00.165Z,71.90
2019-05-25T01:57:26.740Z,72.00
2019-05-25T01:59:53.828Z,71.98
2019-05-25T02:02:20.910Z,72.24
2019-05-25T02:04:47.941Z,72.41
2019-05-25T02:07:15.031Z,72.54
2019-05-25T02:09:42.120Z,72.60
2019-05-25T02:12:09.177Z,72.63
2019-05-25T02:14:36.253Z,72.60
2019-05-25T02:17:03.468Z,72.63
2019-05-25T02:19:30.540Z,72.63
2019-05-25T02:21:57.621Z,72.73
2019-05-25T02:24:24.688Z,72.82
2019-05-25T02:26:51.777Z,72.89
2019-05-25T02:29:19.010Z,72.88
2019-05-25T02:31:46.103Z,73.05
2019-05-25T02:34:13.150Z,73.35
2019-05-25T02:36:40.240Z,73.40
2019-05-25T02:39:07.363Z,73.31
2019-05-25T02:41:34.568Z,73.32
2019-05-25T02:44:01.791Z,73.36
2019-05-25T02:46:28.895Z,73.47
2019-05-25T02:48:55.946Z,73.56
2019-05-25T02:51:23.043Z,73.62
2019-05-25T02:53:50.116Z,73.75
2019-05-25T02:56:17.220Z,73.72
2019-05-25T02:58:44.347Z,73.76
2019-05-25T03:01:11.411Z,73.90
2019-05-25T03:03:38.492Z,74.26
2019-05-25T03:06:05.691Z,74.50
2019-05-25T03:08:33.250Z,74.41
2019-05-25T03:11:00.332Z,74.36
2019-05-25T03:13:30.799Z,74.39
2019-05-25T03:15:57.892Z,74.28
2019-05-25T03:18:24.977Z,74.27
2019-05-25T03:20:52.070Z,74.29
2019-05-25T03:23:19.171Z,74.20
2019-05-25T03:25:49.610Z,74.30
2019-05-25T03:28:15.209Z,74.50
2019-05-25T03:30:42.316Z,74.60
2019-05-25T03:33:09.418Z,74.90
2019-05-25T03:35:36.463Z,74.99
2019-05-25T03:38:03.602Z,75.00
2019-05-25T03:40:30.619Z,74.94
2019-05-25T03:42:57.695Z,74.91
2019-05-25T03:45:24.773Z,74.88
2019-05-25T03:47:51.833Z,75.12
2019-05-25T03:50:18.995Z,75.11
2019-05-25T03:52:46.189Z,75.29
2019-05-25T03:55:14.911Z,75.23
2019-05-25T03:57:42.001Z,75.22
2019-05-25T04:00:09.306Z,75.64
2019-05-25T04:02:36.379Z,75.37
2019-05-25T04:05:03.763Z,75.12
2019-05-25T04:07:30.848Z,74.83
2019-05-25T04:09:57.921Z,74.89
2019-05-25T04:12:25.007Z,74.85
2019-05-25T04:14:52.063Z,74.77
2019-05-25T04:17:19.146Z,74.67
2019-05-25T04:19:46.265Z,74.48
2019-05-25T04:22:13.306Z,74.58
2019-05-25T04:24:40.417Z,74.79
2019-05-25T04:27:07.482Z,75.31
2019-05-25T04:29:34.558Z,75.18
2019-05-25T04:32:01.630Z,74.87
2019-05-25T04:34:28.669Z,74.86
2019-05-25T04:36:55.771Z,73.87
2019-05-25T04:39:22.853Z,74.13
2019-05-25T04:41:49.932Z,74.16
2019-05-25T04:44:17.009Z,73.99
2019-05-25T04:46:44.097Z,73.60
2019-05-25T04:49:11.191Z,73.11
2019-05-25T04:51:38.270Z,72.52
2019-05-25T04:54:05.351Z,72.07
2019-05-25T04:56:39.324Z,72.13
2019-05-25T04:59:01.450Z,73.27
2019-05-25T05:01:28.521Z,72.84
2019-05-25T05:03:55.637Z,71.34
2019-05-25T05:06:22.695Z,70.50
2019-05-25T05:08:49.773Z,70.71
2019-05-25T05:11:16.837Z,70.04
2019-05-25T05:13:43.917Z,68.86
2019-05-25T05:16:11.013Z,69.21
2019-05-25T05:18:38.075Z,68.04
2019-05-25T05:21:05.164Z,68.03
2019-05-25T05:23:32.257Z,67.30
2019-05-25T05:25:59.344Z,67.25
2019-05-25T05:28:26.389Z,67.34
2019-05-25T05:30:53.485Z,68.00
2019-05-25T05:33:20.610Z,67.46
2019-05-25T05:35:48.297Z,66.78
2019-05-25T05:38:15.526Z,67.30
2019-05-25T05:40:42.607Z,67.30
2019-05-25T05:43:10.645Z,66.36
2019-05-25T05:45:40.363Z,66.12
2019-05-25T05:48:09.450Z,65.55
2019-05-25T05:50:37.247Z,65.55
2019-05-25T05:53:04.319Z,65.72
2019-05-25T05:55:31.889Z,65.93
2019-05-25T05:57:59.252Z,65.55
2019-05-25T06:00:26.338Z,65.84
2019-05-25T06:02:53.427Z,64.58
2019-05-25T06:05:20.523Z,64.41
2019-05-25T06:07:47.643Z,64.38
2019-05-25T06:10:17.566Z,63.97
2019-05-25T06:12:44.655Z,63.84
2019-05-25T06:15:12.086Z,63.45
2019-05-25T06:17:39.138Z,63.36
2019-05-25T06:20:07.175Z,63.60
2019-05-25T06:22:34.251Z,63.18
2019-05-25T06:25:01.340Z,62.64
2019-05-25T06:27:28.439Z,63.21
2019-05-25T06:29:55.533Z,62.84
2019-05-25T06:32:22.620Z,62.83
2019-05-25T06:34:49.681Z,62.60
2019-05-25T06:37:16.723Z,61.70
2019-05-25T06:39:43.827Z,62.02
2019-05-25T06:42:10.905Z,62.08
2019-05-25T06:44:38.005Z,61.36
2019-05-25T06:47:05.057Z,60.90
2019-05-25T06:49:32.132Z,60.71
2019-05-25T06:51:59.221Z,59.84
2019-05-25T06:54:26.331Z,59.44
2019-05-25T06:56:53.358Z,59.35
2019-05-25T06:59:20.444Z,59.26
2019-05-25T07:01:47.507Z,58.93
2019-05-25T07:04:14.596Z,58.48
2019-05-25T07:06:41.660Z,56.91
2019-05-25T07:09:08.735Z,54.97
2019-05-25T07:11:35.847Z,54.67
2019-05-25T07:14:03.025Z,54.76
2019-05-25T07:16:30.099Z,54.32
2019-05-25T07:18:57.332Z,54.24
2019-05-25T07:21:24.427Z,54.21
2019-05-25T07:23:51.473Z,53.76
2019-05-25T07:26:18.564Z,53.97
2019-05-25T07:28:45.619Z,54.55
2019-05-25T07:31:12.705Z,53.71
2019-05-25T07:33:39.751Z,53.37
2019-05-25T07:36:07.701Z,53.33
2019-05-25T07:38:35.106Z,53.59
2019-05-25T07:41:02.189Z,53.96
2019-05-25T07:43:29.234Z,51.84
2019-05-25T07:45:56.293Z,51.67
2019-05-25T07:48:23.354Z,51.48
2019-05-25T07:50:50.431Z,52.31
2019-05-25T07:53:17.542Z,52.54
2019-05-25T07:55:44.618Z,51.97
2019-05-25T07:58:17.377Z,51.69
2019-05-25T08:00:51.068Z,50.90
2019-05-25T08:03:18.173Z,51.67
2019-05-25T08:05:45.296Z,50.50
2019-05-25T08:08:12.388Z,49.71
2019-05-25T08:10:39.520Z,48.59
2019-05-25T08:13:06.733Z,50.03
2019-05-25T08:15:33.850Z,50.19
2019-05-25T08:18:00.975Z,47.96
2019-05-25T08:20:28.038Z,46.62
2019-05-25T08:22:55.157Z,46.96
2019-05-25T08:25:22.295Z,47.32
2019-05-25T08:27:49.386Z,48.27
2019-05-25T08:30:16.820Z,46.72
2019-05-25T08:32:43.890Z,46.56
2019-05-25T08:35:11.112Z,46.05
2019-05-25T08:37:38.194Z,46.25
2019-05-25T08:40:46.155Z,46.23
2019-05-25T08:43:13.224Z,43.22
2019-05-25T08:45:40.321Z,43.38
2019-05-25T08:48:07.389Z,43.14
2019-05-25T08:50:38.327Z,43.07
2019-05-25T08:53:03.437Z,42.85
2019-05-25T08:55:30.518Z,41.78
2019-05-25T08:57:57.591Z,42.34
2019-05-25T09:00:24.779Z,42.94
2019-05-25T09:02:51.906Z,41.14
2019-05-25T09:05:18.934Z,40.96
2019-05-25T09:07:46.026Z,41.31
2019-05-25T09:10:16.748Z,41.74
2019-05-25T09:12:43.824Z,40.44
2019-05-25T09:15:11.318Z,41.25
2019-05-25T09:17:38.394Z,40.37
2019-05-25T09:20:05.640Z,41.22
2019-05-25T09:22:32.736Z,42.06
2019-05-25T09:24:59.845Z,40.46
2019-05-25T09:27:26.939Z,38.74
2019-05-25T09:29:54.004Z,38.58
2019-05-25T09:32:21.121Z,39.10
2019-05-25T09:34:48.208Z,37.94
2019-05-25T09:37:15.261Z,37.85
2019-05-25T09:39:42.326Z,37.82
2019-05-25T09:42:09.393Z,37.33
2019-05-25T09:44:36.466Z,37.57
2019-05-25T09:47:03.533Z,36.79
2019-05-25T09:49:30.609Z,36.71
2019-05-25T09:51:57.720Z,37.24
2019-05-25T09:54:24.852Z,36.15
2019-05-25T09:56:51.950Z,36.46
2019-05-25T09:59:20.429Z,36.16
2019-05-25T10:01:47.756Z,36.17
2019-05-25T10:04:14.834Z,35.61
2019-05-25T10:06:41.916Z,35.87
2019-05-25T10:09:08.973Z,35.92
2019-05-25T10:11:36.048Z,35.55
2019-05-25T10:14:03.182Z,35.59
2019-05-25T10:16:30.249Z,33.23
2019-05-25T10:18:57.325Z,33.41
2019-05-25T10:21:24.416Z,31.92
2019-05-25T10:23:51.508Z,32.07
2019-05-25T10:26:18.579Z,32.09
2019-05-25T10:28:45.682Z,31.99
2019-05-25T10:31:12.768Z,30.01
2019-05-25T10:33:39.957Z,29.50
2019-05-25T10:36:07.072Z,30.45
2019-05-25T10:38:34.171Z,30.08
2019-05-25T10:41:01.331Z,30.74
2019-05-25T10:43:28.430Z,31.36
2019-05-25T10:45:55.484Z,29.92
2019-05-25T10:48:22.579Z,30.08
2019-05-25T10:50:49.662Z,29.64
2019-05-25T10:53:16.751Z,30.82
2019-05-25T10:55:43.847Z,31.39
2019-05-25T10:58:10.927Z,31.22
2019-05-25T11:00:38.013Z,30.39
2019-05-25T11:03:05.103Z,30.89
2019-05-25T11:05:32.239Z,29.96
2019-05-25T11:07:59.353Z,29.99
2019-05-25T11:10:26.435Z,29.44
2019-05-25T11:12:53.539Z,30.48
2019-05-25T11:15:20.646Z,30.33
2019-05-25T11:17:47.784Z,28.82
2019-05-25T11:20:15.884Z,28.71
2019-05-25T11:22:42.974Z,29.75
2019-05-25T11:25:15.385Z,29.96
2019-05-25T11:27:42.463Z,29.85
2019-05-25T11:30:30.855Z,29.24
2019-05-25T11:32:57.961Z,28.36
2019-05-25T11:35:25.055Z,28.31
2019-05-25T11:37:52.170Z,27.55
2019-05-25T11:43:20.215Z,28.36
2019-05-25T11:45:47.324Z,26.34
2019-05-25T11:48:14.430Z,26.56
2019-05-25T11:50:41.523Z,26.07
2019-05-25T11:53:08.616Z,26.45
2019-05-25T11:55:35.709Z,26.70
2019-05-25T11:58:02.773Z,24.96
2019-05-25T12:00:29.862Z,25.26
2019-05-25T12:02:56.918Z,24.97
2019-05-25T12:05:24.019Z,24.53
2019-05-25T12:07:51.190Z,24.66
2019-05-25T12:10:18.937Z,24.38
2019-05-25T12:12:46.036Z,24.91
2019-05-25T12:15:13.332Z,27.24
2019-05-25T12:17:40.403Z,27.96
2019-05-25T12:20:28.792Z,29.92
2019-05-25T12:22:55.890Z,29.43
2019-05-25T12:25:23.059Z,28.54
2019-05-25T12:27:50.120Z,28.08
2019-05-25T12:33:19.190Z,29.24
2019-05-25T12:35:46.300Z,29.05
2019-05-25T12:38:13.395Z,28.67
2019-05-25T12:40:53.263Z,28.44
2019-05-25T12:43:16.307Z,29.53
2019-05-25T12:45:43.384Z,28.71
2019-05-25T12:48:10.464Z,28.10
2019-05-25T12:50:37.534Z,28.12
2019-05-25T12:53:04.673Z,27.78
2019-05-25T12:55:31.782Z,27.57
2019-05-25T12:57:58.883Z,27.41
2019-05-25T13:00:25.979Z,26.77
2019-05-25T13:02:53.056Z,27.35
2019-05-25T13:05:33.070Z,27.55
2019-05-25T13:07:49.091Z,28.09
2019-05-25T13:10:17.274Z,28.71
2019-05-25T13:12:44.359Z,28.14
2019-05-25T13:15:11.628Z,29.15
2019-05-25T13:17:38.678Z,29.06
2019-05-25T13:20:05.801Z,29.35
2019-05-25T13:22:32.904Z,30.06
2019-05-25T13:24:59.980Z,30.48
2019-05-25T13:27:27.060Z,30.64
2019-05-25T13:29:54.212Z,31.34
2019-05-25T13:32:21.290Z,31.36
2019-05-25T13:34:48.393Z,30.84
2019-05-25T13:37:17.765Z,31.55
2019-05-25T13:39:50.887Z,31.99
2019-05-25T13:42:18.051Z,32.88
2019-05-25T13:44:45.143Z,33.48
2019-05-25T13:47:12.234Z,34.29
2019-05-25T13:49:39.338Z,32.62
2019-05-25T13:52:06.416Z,31.20
2019-05-25T13:54:33.527Z,31.15
2019-05-25T13:57:00.604Z,30.72
2019-05-25T13:59:27.682Z,30.84
2019-05-25T14:01:54.769Z,30.94
2019-05-25T14:04:21.892Z,31.29
2019-05-25T14:06:48.966Z,32.40
2019-05-25T14:09:16.169Z,33.48
2019-05-25T14:11:43.314Z,34.20
2019-05-25T14:14:10.417Z,35.01
2019-05-25T14:16:37.489Z,36.08
2019-05-25T14:19:04.617Z,35.58
2019-05-25T14:21:31.774Z,35.44
2019-05-25T14:23:58.877Z,35.34
2019-05-25T14:26:25.957Z,36.26
2019-05-25T14:28:53.015Z,36.27
2019-05-25T14:31:20.117Z,36.76
2019-05-25T14:33:47.225Z,37.00
2019-05-25T14:36:14.292Z,37.51
2019-05-25T14:38:41.387Z,37.52
2019-05-25T14:41:08.483Z,37.81
2019-05-25T14:43:35.544Z,38.08
2019-05-25T14:46:02.638Z,37.44
2019-05-25T14:48:29.804Z,37.55
2019-05-25T14:50:56.852Z,37.51
2019-05-25T14:53:23.921Z,37.02
2019-05-25T14:55:50.998Z,37.89
2019-05-25T14:58:18.094Z,38.60
2019-05-25T15:00:45.332Z,38.29
2019-05-25T15:03:12.366Z,38.86
2019-05-25T15:05:39.449Z,38.98
2019-05-25T15:08:06.499Z,38.99
2019-05-25T15:10:33.576Z,40.26
2019-05-25T15:13:00.677Z,40.09
2019-05-25T15:15:27.718Z,40.09
2019-05-25T15:17:54.782Z,40.49
2019-05-25T15:20:21.830Z,40.80
2019-05-25T15:22:48.918Z,41.02
2019-05-25T15:25:18.088Z,41.09
2019-05-25T15:27:45.187Z,40.55
2019-05-25T15:30:12.368Z,41.36
2019-05-25T15:32:39.462Z,41.78
2019-05-25T15:35:06.732Z,41.91
2019-05-25T15:37:33.811Z,41.83
2019-05-25T15:40:00.895Z,42.30
2019-05-25T15:42:28.639Z,41.99
2019-05-25T15:44:55.711Z,42.38
2019-05-25T15:47:22.775Z,43.32
2019-05-25T15:49:49.849Z,43.54
2019-05-25T15:52:16.928Z,43.62
2019-05-25T15:54:43.986Z,43.84
2019-05-25T15:57:11.072Z,44.42
2019-05-25T15:59:38.149Z,44.73
2019-05-25T16:02:05.430Z,44.87
2019-05-25T16:04:32.605Z,44.91
2019-05-25T16:06:59.665Z,45.22
2019-05-25T16:09:26.711Z,45.12
2019-05-25T16:11:53.796Z,45.03
2019-05-25T16:14:20.896Z,45.67
2019-05-25T16:16:47.993Z,45.33
2019-05-25T16:19:15.092Z,45.60
2019-05-25T16:21:42.196Z,46.39
2019-05-25T16:24:09.329Z,47.70
2019-05-25T16:26:45.394Z,49.13
2019-05-25T16:29:05.375Z,50.80
2019-05-25T16:31:32.455Z,52.33
2019-05-25T16:33:59.537Z,54.60
2019-05-25T16:36:26.619Z,55.61
2019-05-25T16:38:53.703Z,56.91
2019-05-25T16:41:20.857Z,57.98
2019-05-25T16:43:48.019Z,58.51
2019-05-25T16:46:15.111Z,59.86
2019-05-25T16:48:42.195Z,61.06
2019-05-25T16:51:09.338Z,61.28
2019-05-25T16:53:36.418Z,62.39
2019-05-25T16:56:03.545Z,62.72
2019-05-25T16:58:30.649Z,63.71
2019-05-25T17:00:58.101Z,64.88
2019-05-25T17:03:28.655Z,65.87
2019-05-25T17:05:54.203Z,66.81
2019-05-25T17:08:21.295Z,66.80
2019-05-25T17:10:48.384Z,68.03
2019-05-25T17:13:15.473Z,68.66
2019-05-25T17:15:42.569Z,68.33
2019-05-25T17:18:09.652Z,68.63
2019-05-25T17:20:36.723Z,68.83
2019-05-25T17:23:03.781Z,69.00
2019-05-25T17:25:30.918Z,69.28
2019-05-25T17:27:57.990Z,69.08
2019-05-25T17:30:37.468Z,69.00
2019-05-25T17:33:04.984Z,69.10
2019-05-25T17:35:32.092Z,69.05
2019-05-25T17:37:59.155Z,69.60
2019-05-25T17:40:26.280Z,69.70
2019-05-25T17:42:53.379Z,69.89
2019-05-25T17:45:20.483Z,70.06
2019-05-25T17:47:47.622Z,69.96
2019-05-25T17:50:14.661Z,69.56
2019-05-25T17:52:41.842Z,69.67
2019-05-25T17:55:13.283Z,70.12
2019-05-25T17:57:40.572Z,70.68
2019-05-25T18:00:08.064Z,70.83
2019-05-25T18:02:35.276Z,71.03
2019-05-25T18:05:02.387Z,71.12
2019-05-25T18:07:29.509Z,71.17
2019-05-25T18:09:56.563Z,72.11
2019-05-25T18:12:24.470Z,72.27
2019-05-25T18:14:51.539Z,72.60
2019-05-25T18:17:18.630Z,72.77
2019-05-25T18:19:45.759Z,73.19
2019-05-25T18:22:12.864Z,73.94
2019-05-25T18:24:42.531Z,74.32
2019-05-25T18:27:09.672Z,74.34
2019-05-25T18:29:36.745Z,74.81
2019-05-25T18:32:03.992Z,75.20
2019-05-25T18:34:31.040Z,75.38
2019-05-25T18:36:58.121Z,75.92
2019-05-25T18:39:25.199Z,76.44
2019-05-25T18:41:52.304Z,76.76
2019-05-25T18:44:19.447Z,76.85
2019-05-25T18:46:46.561Z,77.00
2019-05-25T18:49:13.647Z,77.18
2019-05-25T18:51:40.768Z,77.70
2019-05-25T18:54:07.832Z,77.87
2019-05-25T18:56:34.928Z,77.94
2019-05-25T18:59:02.054Z,77.76
2019-05-25T19:01:29.127Z,77.55
2019-05-25T19:03:56.246Z,77.63
2019-05-25T19:06:23.322Z,77.71
2019-05-25T19:08:50.430Z,77.53
2019-05-25T19:11:17.524Z,77.68
2019-05-25T19:13:44.717Z,77.69
2019-05-25T19:16:11.887Z,77.69
2019-05-25T19:18:38.966Z,77.77
2019-05-25T19:21:06.082Z,77.65
2019-05-25T19:23:33.174Z,76.63
2019-05-25T19:26:00.301Z,76.59
2019-05-25T19:28:27.403Z,76.81
2019-05-25T19:30:54.534Z,77.14
2019-05-25T19:33:21.635Z,76.95
2019-05-25T19:35:48.719Z,76.78
2019-05-25T19:38:15.836Z,75.63
2019-05-25T19:40:42.921Z,75.53
2019-05-25T19:43:10.036Z,75.90
2019-05-25T19:45:37.124Z,76.11
2019-05-25T19:48:04.339Z,76.45
2019-05-25T19:50:31.425Z,77.08
2019-05-25T19:52:58.526Z,77.40
2019-05-25T19:55:25.943Z,77.71
2019-05-25T19:57:53.116Z,77.22
2019-05-25T20:00:20.321Z,77.49
2019-05-25T20:02:47.417Z,77.15
2019-05-25T20:05:16.994Z,77.15
2019-05-25T20:07:43.772Z,77.15
2019-05-25T20:10:15.054Z,76.46
2019-05-25T20:12:42.286Z,76.46
2019-05-25T20:15:09.669Z,76.96
2019-05-25T20:17:36.746Z,76.42
2019-05-25T20:20:04.242Z,76.42
2019-05-25T20:22:31.315Z,76.84
2019-05-25T20:24:58.418Z,76.87
2019-05-25T20:27:25.514Z,77.24
2019-05-25T20:29:52.648Z,77.05
2019-05-25T20:32:19.930Z,77.05
2019-05-25T20:34:47.005Z,76.93
2019-05-25T20:37:14.077Z,76.37
2019-05-25T20:39:53.948Z,76.39
2019-05-25T20:42:33.961Z,76.52
2019-05-25T20:45:01.082Z,76.52
2019-05-25T20:47:47.618Z,76.61
2019-05-25T20:50:14.839Z,76.61
2019-05-25T20:52:41.957Z,76.53
2019-05-25T20:55:13.467Z,76.53
2019-05-25T20:57:40.739Z,76.53
2019-05-25T21:00:07.951Z,76.71
2019-05-25T21:02:35.031Z,76.73
2019-05-25T21:05:02.142Z,76.14
2019-05-25T21:07:29.211Z,76.14
2019-05-25T21:09:56.295Z,76.41
2019-05-25T21:12:23.439Z,76.63
2019-05-25T21:14:50.573Z,76.74
2019-05-25T21:17:17.673Z,77.20
2019-05-25T21:19:44.748Z,77.20
2019-05-25T21:22:11.824Z,77.70
2019-05-25T21:24:38.939Z,77.63
2019-05-25T21:27:06.028Z,77.35
2019-05-25T21:29:33.116Z,76.83
2019-05-25T21:32:00.171Z,76.38
2019-05-25T21:34:27.308Z,76.02
2019-05-25T21:36:54.439Z,75.38
2019-05-25T21:39:21.543Z,75.38
2019-05-25T21:41:48.646Z,76.10
2019-05-25T21:44:15.743Z,75.89
2019-05-25T21:46:42.822Z,75.89
2019-05-25T21:49:09.910Z,75.91
2019-05-25T21:51:37.032Z,75.44
2019-05-25T21:54:04.149Z,75.85
2019-05-25T21:56:31.242Z,75.85
2019-05-25T21:58:58.327Z,75.49
2019-05-25T22:01:25.459Z,75.36
2019-05-25T22:03:52.540Z,75.36
2019-05-25T22:06:24.305Z,75.58
2019-05-25T22:08:48.611Z,75.46
2019-05-25T22:11:15.685Z,75.42
2019-05-25T22:13:42.778Z,75.42
2019-05-25T22:16:09.867Z,75.35
2019-05-25T22:18:36.961Z,75.43
2019-05-25T22:21:04.021Z,75.36
2019-05-25T22:23:31.076Z,75.97
2019-05-25T22:25:58.161Z,75.97
2019-05-25T22:28:25.269Z,75.83
2019-05-25T22:30:52.372Z,75.97
2019-05-25T22:33:19.452Z,76.02
2019-05-25T22:35:46.575Z,76.02
2019-05-25T22:38:13.667Z,76.02
2019-05-25T22:40:40.970Z,75.91
2019-05-25T22:43:08.023Z,75.77
2019-05-25T22:45:35.108Z,75.55
2019-05-25T22:48:02.191Z,75.73
2019-05-25T22:50:29.249Z,75.65
2019-05-25T22:52:56.353Z,75.74
2019-05-25T22:55:23.417Z,75.74
2019-05-25T22:57:50.495Z,75.58
2019-05-25T23:00:17.601Z,75.27
2019-05-25T23:02:44.740Z,75.53
2019-05-25T23:05:13.265Z,75.16
2019-05-25T23:07:40.359Z,75.16
2019-05-25T23:10:08.139Z,75.16
2019-05-25T23:12:35.244Z,75.16
2019-05-25T23:15:02.648Z,75.51
2019-05-25T23:17:29.751Z,75.38
2019-05-25T23:19:56.843Z,75.55
2019-05-25T23:22:23.921Z,75.55
2019-05-25T23:24:51.209Z,75.56
2019-05-25T23:27:18.429Z,76.00
2019-05-25T23:29:45.495Z,76.00
2019-05-25T23:32:12.582Z,75.64
2019-05-25T23:34:39.674Z,75.54
2019-05-25T23:37:14.630Z,75.54
2019-05-25T23:39:35.764Z,75.66
2019-05-25T23:42:02.854Z,75.64
2019-05-25T23:44:29.915Z,75.65
2019-05-25T23:46:57.037Z,75.64
2019-05-25T23:49:24.134Z,75.77
2019-05-25T23:51:51.196Z,75.85
2019-05-25T23:54:18.299Z,75.71
2019-05-25T23:56:45.365Z,75.85
2019-05-25T23:59:12.478Z,76.00
